createdAt,value
2019-06-20T00:00:43.681Z,1003.13
2019-06-20T00:01:43.680Z,1003.26
2019-06-20T00:02:43.686Z,1003.18
2019-06-20T00:03:43.660Z,1003.12
2019-06-20T00:04:43.637Z,1003.18
2019-06-20T00:05:43.627Z,1003.08
2019-06-20T00:06:43.620Z,1003.07
2019-06-20T00:07:43.627Z,1003.16
2019-06-20T00:08:43.599Z,1003.13
2019-06-20T00:09:43.652Z,1003.14
2019-06-20T00:10:43.792Z,1003.16
2019-06-20T00:11:43.554Z,1003.15
2019-06-20T00:12:56.769Z,1003.22
2019-06-20T00:13:44.541Z,1003.13
2019-06-20T00:14:43.526Z,1003.22
2019-06-20T00:15:43.512Z,1003.23
2019-06-20T00:16:43.515Z,1003.21
2019-06-20T00:17:43.528Z,1003.24
2019-06-20T00:18:43.485Z,1003.32
2019-06-20T00:19:43.472Z,1003.30
2019-06-20T00:20:43.511Z,1003.34
2019-06-20T00:21:43.458Z,1003.46
2019-06-20T00:22:43.460Z,1003.40
2019-06-20T00:23:43.428Z,1003.55
2019-06-20T00:24:43.416Z,1003.47
2019-06-20T00:25:43.422Z,1003.54
2019-06-20T00:26:43.394Z,1003.55
2019-06-20T00:27:43.406Z,1003.65
2019-06-20T00:28:43.371Z,1003.48
2019-06-20T00:29:43.359Z,1003.50
2019-06-20T00:30:43.348Z,1003.32
2019-06-20T00:31:43.345Z,1003.36
2019-06-20T00:32:43.357Z,1003.29
2019-06-20T00:33:43.318Z,1003.27
2019-06-20T00:34:43.310Z,1003.30
2019-06-20T00:35:43.298Z,1003.36
2019-06-20T00:36:43.286Z,1003.20
2019-06-20T00:37:43.298Z,1003.28
2019-06-20T00:38:43.266Z,1003.23
2019-06-20T00:39:43.290Z,1003.23
2019-06-20T00:40:43.242Z,1003.18
2019-06-20T00:41:43.224Z,1003.02
2019-06-20T00:42:43.707Z,1003.06
2019-06-20T00:43:43.202Z,1003.03
2019-06-20T00:44:43.204Z,1002.93
2019-06-20T00:45:43.188Z,1002.91
2019-06-20T00:46:43.184Z,1002.76
2019-06-20T00:47:43.188Z,1002.78
2019-06-20T00:48:43.148Z,1002.70
2019-06-20T00:49:43.137Z,1002.60
2019-06-20T00:50:43.128Z,1002.60
2019-06-20T00:51:43.118Z,1002.52
2019-06-20T00:52:43.123Z,1002.48
2019-06-20T00:53:43.639Z,1002.42
2019-06-20T00:54:43.087Z,1002.53
2019-06-20T00:55:43.072Z,1002.49
2019-06-20T00:56:43.075Z,1002.34
2019-06-20T00:57:43.071Z,1002.37
2019-06-20T00:58:43.041Z,1002.40
2019-06-20T00:59:43.020Z,1002.28
2019-06-20T01:00:43.026Z,1002.32
2019-06-20T01:01:43.016Z,1002.33
2019-06-20T01:02:43.025Z,1002.27
2019-06-20T01:03:42.993Z,1002.15
2019-06-20T01:04:42.972Z,1002.25
2019-06-20T01:05:42.959Z,1002.21
2019-06-20T01:06:42.952Z,1002.22
2019-06-20T01:07:42.961Z,1002.28
2019-06-20T01:08:42.936Z,1002.45
2019-06-20T01:09:42.912Z,1002.49
2019-06-20T01:10:42.910Z,1002.67
2019-06-20T01:11:42.894Z,1002.62
2019-06-20T01:12:42.900Z,1002.94
2019-06-20T01:13:42.874Z,1003.00
2019-06-20T01:14:42.866Z,1003.02
2019-06-20T01:15:42.854Z,1003.28
2019-06-20T01:16:42.837Z,1003.30
2019-06-20T01:17:42.914Z,1003.18
2019-06-20T01:18:42.815Z,1003.19
2019-06-20T01:19:42.803Z,1003.21
2019-06-20T01:20:42.798Z,1003.00
2019-06-20T01:21:42.794Z,1003.12
2019-06-20T01:22:42.848Z,1003.28
2019-06-20T01:23:42.764Z,1003.21
2019-06-20T01:24:42.767Z,1003.15
2019-06-20T01:25:42.753Z,1003.11
2019-06-20T01:26:42.730Z,1003.28
2019-06-20T01:27:42.736Z,1002.95
2019-06-20T01:28:42.723Z,1002.90
2019-06-20T01:29:42.691Z,1003.00
2019-06-20T01:30:42.684Z,1002.93
2019-06-20T01:31:43.195Z,1002.86
2019-06-20T01:32:42.689Z,1002.96
2019-06-20T01:33:42.648Z,1003.05
2019-06-20T01:34:42.644Z,1003.06
2019-06-20T01:35:42.633Z,1003.08
2019-06-20T01:36:42.631Z,1003.14
2019-06-20T01:37:42.608Z,1003.14
2019-06-20T01:38:42.707Z,1003.16
2019-06-20T01:39:42.584Z,1003.17
2019-06-20T01:40:42.579Z,1003.27
2019-06-20T01:41:42.566Z,1003.17
2019-06-20T01:42:42.561Z,1003.23
2019-06-20T01:43:50.719Z,1003.24
2019-06-20T01:44:43.530Z,1003.22
2019-06-20T01:45:42.512Z,1003.30
2019-06-20T01:46:42.504Z,1003.09
2019-06-20T01:47:42.496Z,1003.09
2019-06-20T01:48:42.498Z,1003.13
2019-06-20T01:49:42.462Z,1003.09
2019-06-20T01:50:42.469Z,1003.22
2019-06-20T01:51:42.440Z,1003.18
2019-06-20T01:52:42.445Z,1003.14
2019-06-20T01:53:42.449Z,1002.96
2019-06-20T01:54:42.414Z,1003.04
2019-06-20T01:55:42.408Z,1003.13
2019-06-20T01:56:42.410Z,1003.10
2019-06-20T01:57:42.377Z,1003.14
2019-06-20T01:58:42.374Z,1003.12
2019-06-20T01:59:42.377Z,1003.14
2019-06-20T02:00:42.353Z,1003.26
2019-06-20T02:01:42.337Z,1003.11
2019-06-20T02:02:42.334Z,1003.21
2019-06-20T02:03:42.312Z,1003.07
2019-06-20T02:04:42.320Z,1003.07
2019-06-20T02:05:42.300Z,1003.05
2019-06-20T02:06:42.280Z,1002.98
2019-06-20T02:07:42.269Z,1002.94
2019-06-20T02:08:42.256Z,1003.11
2019-06-20T02:09:42.273Z,1003.02
2019-06-20T02:10:42.241Z,1003.04
2019-06-20T02:11:42.229Z,1003.06
2019-06-20T02:12:42.210Z,1003.08
2019-06-20T02:13:42.210Z,1003.11
2019-06-20T02:14:42.216Z,1003.10
2019-06-20T02:15:42.190Z,1003.17
2019-06-20T02:16:42.183Z,1002.99
2019-06-20T02:17:42.156Z,1003.03
2019-06-20T02:18:42.154Z,1003.02
2019-06-20T02:19:42.160Z,1003.19
2019-06-20T02:20:42.127Z,1003.08
2019-06-20T02:21:42.114Z,1003.18
2019-06-20T02:22:42.118Z,1003.20
2019-06-20T02:23:42.094Z,1003.07
2019-06-20T02:24:42.125Z,1003.20
2019-06-20T02:25:42.108Z,1003.16
2019-06-20T02:26:42.061Z,1003.16
2019-06-20T02:27:42.048Z,1003.03
2019-06-20T02:28:42.085Z,1002.93
2019-06-20T02:29:42.038Z,1003.07
2019-06-20T02:30:42.013Z,1003.04
2019-06-20T02:31:41.999Z,1002.99
2019-06-20T02:32:41.991Z,1002.99
2019-06-20T02:33:41.994Z,1003.02
2019-06-20T02:34:41.996Z,1002.94
2019-06-20T02:35:42.019Z,1002.90
2019-06-20T02:36:41.949Z,1003.04
2019-06-20T02:37:41.950Z,1003.07
2019-06-20T02:38:41.929Z,1003.06
2019-06-20T02:39:41.943Z,1003.02
2019-06-20T02:40:41.898Z,1003.01
2019-06-20T02:41:41.890Z,1002.93
2019-06-20T02:42:41.883Z,1002.88
2019-06-20T02:43:41.868Z,1002.77
2019-06-20T02:44:41.912Z,1002.80
2019-06-20T02:45:41.847Z,1002.76
2019-06-20T02:46:41.918Z,1002.88
2019-06-20T02:47:41.853Z,1002.84
2019-06-20T02:48:41.812Z,1002.81
2019-06-20T02:49:41.810Z,1002.86
2019-06-20T02:50:41.808Z,1002.87
2019-06-20T02:51:41.789Z,1002.95
2019-06-20T02:52:42.726Z,1003.05
2019-06-20T02:53:41.761Z,1003.12
2019-06-20T02:54:41.752Z,1003.12
2019-06-20T02:55:41.758Z,1003.07
2019-06-20T02:56:41.728Z,1003.15
2019-06-20T02:57:41.719Z,1003.22
2019-06-20T02:58:41.708Z,1003.20
2019-06-20T02:59:41.708Z,1003.26
2019-06-20T03:00:41.764Z,1003.33
2019-06-20T03:01:41.673Z,1003.24
2019-06-20T03:02:41.667Z,1003.34
2019-06-20T03:03:41.651Z,1003.33
2019-06-20T03:04:42.627Z,1003.39
2019-06-20T03:05:41.643Z,1003.38
2019-06-20T03:06:41.607Z,1003.34
2019-06-20T03:07:41.621Z,1003.32
2019-06-20T03:08:41.582Z,1003.42
2019-06-20T03:09:41.576Z,1003.39
2019-06-20T03:10:41.591Z,1003.31
2019-06-20T03:11:41.556Z,1003.34
2019-06-20T03:12:41.557Z,1003.37
2019-06-20T03:13:41.539Z,1003.50
2019-06-20T03:14:45.439Z,1003.52
2019-06-20T03:15:41.701Z,1003.53
2019-06-20T03:16:41.503Z,1003.59
2019-06-20T03:17:41.487Z,1003.79
2019-06-20T03:18:41.504Z,1003.83
2019-06-20T03:19:41.499Z,1003.94
2019-06-20T03:20:41.471Z,1004.09
2019-06-20T03:21:41.450Z,1003.98
2019-06-20T03:22:41.436Z,1004.14
2019-06-20T03:23:41.434Z,1004.11
2019-06-20T03:24:41.413Z,1004.09
2019-06-20T03:25:41.413Z,1004.10
2019-06-20T03:26:41.384Z,1004.01
2019-06-20T03:27:41.386Z,1003.97
2019-06-20T03:28:41.359Z,1003.96
2019-06-20T03:29:41.350Z,1003.89
2019-06-20T03:30:41.356Z,1003.98
2019-06-20T03:31:41.343Z,1003.86
2019-06-20T03:32:41.325Z,1003.86
2019-06-20T03:33:41.304Z,1003.82
2019-06-20T03:34:41.335Z,1003.82
2019-06-20T03:35:41.298Z,1003.83
2019-06-20T03:36:41.276Z,1003.93
2019-06-20T03:37:41.265Z,1004.00
2019-06-20T03:38:41.255Z,1003.94
2019-06-20T03:39:41.238Z,1003.84
2019-06-20T03:40:41.246Z,1003.77
2019-06-20T03:41:41.311Z,1003.83
2019-06-20T03:42:41.209Z,1003.73
2019-06-20T03:43:41.208Z,1003.66
2019-06-20T03:44:41.190Z,1003.66
2019-06-20T03:45:41.209Z,1003.63
2019-06-20T03:46:41.161Z,1003.59
2019-06-20T03:47:41.159Z,1003.59
2019-06-20T03:48:41.133Z,1003.53
2019-06-20T03:49:41.133Z,1003.62
2019-06-20T03:50:41.124Z,1003.51
2019-06-20T03:51:41.127Z,1003.48
2019-06-20T03:52:41.098Z,1003.39
2019-06-20T03:53:41.090Z,1003.54
2019-06-20T03:54:41.071Z,1003.49
2019-06-20T03:55:41.063Z,1003.60
2019-06-20T03:56:41.073Z,1003.52
2019-06-20T03:57:41.078Z,1003.52
2019-06-20T03:58:41.030Z,1003.50
2019-06-20T03:59:41.016Z,1003.62
2019-06-20T04:00:41.012Z,1003.51
2019-06-20T04:01:41.021Z,1003.56
2019-06-20T04:02:41.027Z,1003.68
2019-06-20T04:03:40.983Z,1003.64
2019-06-20T04:04:40.969Z,1003.65
2019-06-20T04:05:40.954Z,1003.70
2019-06-20T04:06:40.969Z,1003.64
2019-06-20T04:07:40.928Z,1003.63
2019-06-20T04:08:41.034Z,1003.62
2019-06-20T04:09:40.915Z,1003.59
2019-06-20T04:10:40.889Z,1003.70
2019-06-20T04:11:40.905Z,1003.68
2019-06-20T04:12:40.874Z,1003.58
2019-06-20T04:13:40.860Z,1003.47
2019-06-20T04:14:40.907Z,1003.50
2019-06-20T04:15:40.860Z,1003.46
2019-06-20T04:16:40.855Z,1003.47
2019-06-20T04:17:40.826Z,1003.52
2019-06-20T04:18:40.806Z,1003.55
2019-06-20T04:19:40.797Z,1003.42
2019-06-20T04:20:40.940Z,1003.38
2019-06-20T04:21:40.791Z,1003.47
2019-06-20T04:22:40.763Z,1003.33
2019-06-20T04:23:40.743Z,1003.31
2019-06-20T04:24:40.737Z,1003.40
2019-06-20T04:25:40.759Z,1003.45
2019-06-20T04:26:40.816Z,1003.48
2019-06-20T04:27:40.708Z,1003.36
2019-06-20T04:28:40.697Z,1003.39
2019-06-20T04:29:40.697Z,1003.52
2019-06-20T04:30:40.713Z,1003.52
2019-06-20T04:31:40.693Z,1003.53
2019-06-20T04:32:41.687Z,1003.57
2019-06-20T04:33:40.631Z,1003.54
2019-06-20T04:34:40.644Z,1003.64
2019-06-20T04:35:40.639Z,1003.64
2019-06-20T04:36:40.627Z,1003.56
2019-06-20T04:37:40.601Z,1003.71
2019-06-20T04:38:40.623Z,1003.61
2019-06-20T04:39:40.570Z,1003.66
2019-06-20T04:40:40.564Z,1003.77
2019-06-20T04:41:40.602Z,1003.76
2019-06-20T04:42:40.583Z,1003.71
2019-06-20T04:43:40.563Z,1003.63
2019-06-20T04:44:40.523Z,1003.74
2019-06-20T04:45:40.494Z,1003.70
2019-06-20T04:46:40.513Z,1003.72
2019-06-20T04:47:40.496Z,1003.72
2019-06-20T04:48:40.463Z,1003.76
2019-06-20T04:49:40.460Z,1003.91
2019-06-20T04:50:40.456Z,1003.76
2019-06-20T04:51:40.465Z,1003.79
2019-06-20T04:52:40.421Z,1003.92
2019-06-20T04:53:40.434Z,1003.91
2019-06-20T04:54:40.415Z,1003.84
2019-06-20T04:55:40.393Z,1003.92
2019-06-20T04:56:40.458Z,1003.84
2019-06-20T04:57:40.406Z,1003.90
2019-06-20T04:58:40.363Z,1003.88
2019-06-20T04:59:40.349Z,1003.90
2019-06-20T05:00:40.352Z,1003.95
2019-06-20T05:01:40.347Z,1003.99
2019-06-20T05:02:40.317Z,1003.91
2019-06-20T05:03:40.293Z,1004.03
2019-06-20T05:04:40.297Z,1003.88
2019-06-20T05:05:40.289Z,1003.97
2019-06-20T05:06:40.307Z,1003.77
2019-06-20T05:07:40.255Z,1003.81
2019-06-20T05:08:40.246Z,1003.72
2019-06-20T05:09:40.237Z,1003.78
2019-06-20T05:10:40.324Z,1003.71
2019-06-20T05:11:40.253Z,1003.76
2019-06-20T05:12:40.207Z,1003.79
2019-06-20T05:13:40.188Z,1003.61
2019-06-20T05:14:40.180Z,1003.55
2019-06-20T05:15:51.967Z,1003.73
2019-06-20T05:16:41.190Z,1003.63
2019-06-20T05:17:40.145Z,1003.67
2019-06-20T05:18:40.195Z,1003.70
2019-06-20T05:19:40.146Z,1003.73
2019-06-20T05:20:40.110Z,1003.74
2019-06-20T05:21:40.120Z,1003.75
2019-06-20T05:22:40.119Z,1003.88
2019-06-20T05:23:40.085Z,1003.84
2019-06-20T05:24:40.067Z,1003.85
2019-06-20T05:25:40.063Z,1003.91
2019-06-20T05:26:40.117Z,1003.94
2019-06-20T05:27:40.056Z,1003.93
2019-06-20T05:28:40.010Z,1004.01
2019-06-20T05:29:40.023Z,1004.00
2019-06-20T05:30:40.003Z,1004.03
2019-06-20T05:31:39.986Z,1004.02
2019-06-20T05:32:39.995Z,1003.92
2019-06-20T05:33:39.983Z,1003.91
2019-06-20T05:34:39.946Z,1003.98
2019-06-20T05:35:39.944Z,1004.07
2019-06-20T05:36:39.978Z,1003.93
2019-06-20T05:37:39.953Z,1003.95
2019-06-20T05:38:39.919Z,1004.03
2019-06-20T05:39:39.924Z,1003.97
2019-06-20T05:40:39.893Z,1003.87
2019-06-20T05:41:39.881Z,1003.88
2019-06-20T05:42:39.890Z,1003.88
2019-06-20T05:43:39.858Z,1003.95
2019-06-20T05:44:39.845Z,1003.92
2019-06-20T05:45:39.843Z,1003.77
2019-06-20T05:46:39.823Z,1003.81
2019-06-20T05:47:39.838Z,1003.74
2019-06-20T05:48:39.853Z,1003.69
2019-06-20T05:49:39.791Z,1003.63
2019-06-20T05:50:39.774Z,1003.72
2019-06-20T05:51:39.968Z,1003.53
2019-06-20T05:52:39.785Z,1003.54
2019-06-20T05:53:39.751Z,1003.51
2019-06-20T05:54:39.889Z,1003.55
2019-06-20T05:55:39.736Z,1003.52
2019-06-20T05:56:39.717Z,1003.46
2019-06-20T05:57:40.181Z,1003.57
2019-06-20T05:58:39.701Z,1003.61
2019-06-20T05:59:39.668Z,1003.53
2019-06-20T06:00:39.718Z,1003.61
2019-06-20T06:01:39.660Z,1003.58
2019-06-20T06:02:40.231Z,1003.64
2019-06-20T06:03:39.637Z,1003.74
2019-06-20T06:04:39.623Z,1003.88
2019-06-20T06:05:39.619Z,1003.86
2019-06-20T06:06:39.619Z,1004.00
2019-06-20T06:07:39.598Z,1004.03
2019-06-20T06:08:39.583Z,1003.98
2019-06-20T06:09:39.570Z,1004.04
2019-06-20T06:10:39.555Z,1004.12
2019-06-20T06:11:39.551Z,1003.98
2019-06-20T06:12:39.550Z,1004.00
2019-06-20T06:13:39.525Z,1004.05
2019-06-20T06:14:39.521Z,1004.09
2019-06-20T06:15:39.517Z,1004.07
2019-06-20T06:16:39.507Z,1004.17
2019-06-20T06:17:39.520Z,1004.07
2019-06-20T06:18:39.488Z,1004.26
2019-06-20T06:19:39.480Z,1004.37
2019-06-20T06:20:39.459Z,1004.48
2019-06-20T06:21:39.487Z,1004.62
2019-06-20T06:22:39.463Z,1004.54
2019-06-20T06:23:39.462Z,1004.63
2019-06-20T06:24:39.440Z,1004.81
2019-06-20T06:25:39.471Z,1004.86
2019-06-20T06:26:39.412Z,1005.04
2019-06-20T06:27:39.432Z,1005.03
2019-06-20T06:28:39.371Z,1005.14
2019-06-20T06:29:39.346Z,1005.11
2019-06-20T06:30:39.722Z,1005.13
2019-06-20T06:31:39.358Z,1005.20
2019-06-20T06:32:40.598Z,1005.47
2019-06-20T06:33:39.346Z,1005.82
2019-06-20T06:34:39.294Z,1005.83
2019-06-20T06:35:39.279Z,1005.76
2019-06-20T06:36:39.356Z,1006.07
2019-06-20T06:37:39.263Z,1006.30
2019-06-20T06:38:39.280Z,1006.27
2019-06-20T06:39:39.236Z,1006.22
2019-06-20T06:40:39.221Z,1006.02
2019-06-20T06:41:39.806Z,1006.09
2019-06-20T06:42:39.236Z,1006.18
2019-06-20T06:43:42.056Z,1006.13
2019-06-20T06:44:39.179Z,1006.18
2019-06-20T06:45:39.176Z,1006.22
2019-06-20T06:46:44.896Z,1006.10
2019-06-20T06:47:40.147Z,1006.09
2019-06-20T06:48:39.150Z,1006.00
2019-06-20T06:49:39.170Z,1005.95
2019-06-20T06:50:39.116Z,1005.92
2019-06-20T06:51:39.119Z,1005.89
2019-06-20T06:52:39.094Z,1005.88
2019-06-20T06:53:39.102Z,1005.92
2019-06-20T06:54:39.072Z,1006.08
2019-06-20T06:55:39.053Z,1005.87
2019-06-20T06:56:39.060Z,1006.03
2019-06-20T06:57:39.035Z,1005.83
2019-06-20T06:58:39.028Z,1005.95
2019-06-20T06:59:39.051Z,1005.92
2019-06-20T07:00:38.998Z,1005.89
2019-06-20T07:01:38.994Z,1006.01
2019-06-20T07:02:38.982Z,1005.85
2019-06-20T07:03:38.975Z,1005.85
2019-06-20T07:04:38.977Z,1005.76
2019-06-20T07:05:38.950Z,1005.90
2019-06-20T07:06:38.942Z,1005.95
2019-06-20T07:07:38.915Z,1005.85
2019-06-20T07:08:38.911Z,1005.86
2019-06-20T07:09:38.949Z,1005.92
2019-06-20T07:10:38.894Z,1005.98
2019-06-20T07:11:38.866Z,1006.16
2019-06-20T07:12:38.874Z,1006.04
2019-06-20T07:13:38.858Z,1006.01
2019-06-20T07:14:42.552Z,1005.95
2019-06-20T07:15:38.830Z,1005.98
2019-06-20T07:16:38.821Z,1006.11
2019-06-20T07:17:38.809Z,1006.07
2019-06-20T07:18:38.826Z,1005.95
2019-06-20T07:19:38.806Z,1006.01
2019-06-20T07:20:38.786Z,1006.08
2019-06-20T07:21:38.766Z,1005.97
2019-06-20T07:22:38.767Z,1005.87
2019-06-20T07:23:38.748Z,1005.95
2019-06-20T07:24:38.756Z,1005.95
2019-06-20T07:25:38.718Z,1005.91
2019-06-20T07:26:38.718Z,1005.84
2019-06-20T07:27:38.780Z,1005.81
2019-06-20T07:28:38.692Z,1005.81
2019-06-20T07:29:38.733Z,1005.69
2019-06-20T07:30:38.670Z,1005.69
2019-06-20T07:31:38.662Z,1005.72
2019-06-20T07:32:38.638Z,1005.73
2019-06-20T07:33:38.630Z,1005.73
2019-06-20T07:34:38.898Z,1005.56
2019-06-20T07:35:41.761Z,1005.55
2019-06-20T07:36:38.591Z,1005.55
2019-06-20T07:37:38.590Z,1005.60
2019-06-20T07:38:38.578Z,1005.68
2019-06-20T07:39:38.590Z,1005.60
2019-06-20T07:40:38.562Z,1005.66
2019-06-20T07:41:38.566Z,1005.65
2019-06-20T07:42:38.531Z,1005.66
2019-06-20T07:43:38.527Z,1005.65
2019-06-20T07:44:38.552Z,1005.72
2019-06-20T07:45:38.547Z,1005.68
2019-06-20T07:46:38.490Z,1005.73
2019-06-20T07:47:38.558Z,1005.79
2019-06-20T07:48:38.466Z,1005.66
2019-06-20T07:49:38.487Z,1005.79
2019-06-20T07:50:39.396Z,1005.81
2019-06-20T07:51:38.430Z,1005.79
2019-06-20T07:52:38.449Z,1005.71
2019-06-20T07:53:38.421Z,1005.58
2019-06-20T07:54:39.288Z,1005.54
2019-06-20T07:55:38.405Z,1005.59
2019-06-20T07:56:38.372Z,1005.49
2019-06-20T07:57:38.561Z,1005.62
2019-06-20T07:58:38.358Z,1005.48
2019-06-20T07:59:38.369Z,1005.57
2019-06-20T08:00:38.334Z,1005.53
2019-06-20T08:01:39.268Z,1005.61
2019-06-20T08:02:38.320Z,1005.65
2019-06-20T08:03:38.295Z,1005.63
2019-06-20T08:04:38.322Z,1005.55
2019-06-20T08:05:38.272Z,1005.67
2019-06-20T08:06:38.286Z,1005.53
2019-06-20T08:07:38.277Z,1005.60
2019-06-20T08:08:38.258Z,1005.61
2019-06-20T08:09:44.751Z,1005.54
2019-06-20T08:10:39.233Z,1005.66
2019-06-20T08:11:38.213Z,1005.56
2019-06-20T08:12:38.204Z,1005.58
2019-06-20T08:13:38.187Z,1005.58
2019-06-20T08:14:38.178Z,1005.57
2019-06-20T08:15:38.192Z,1005.59
2019-06-20T08:16:38.157Z,1005.58
2019-06-20T08:17:38.150Z,1005.60
2019-06-20T08:18:38.134Z,1005.64
2019-06-20T08:19:38.121Z,1005.58
2019-06-20T08:20:38.129Z,1005.53
2019-06-20T08:21:38.105Z,1005.58
2019-06-20T08:22:38.087Z,1005.46
2019-06-20T08:23:38.068Z,1005.51
2019-06-20T08:24:38.081Z,1005.54
2019-06-20T08:25:38.080Z,1005.45
2019-06-20T08:26:38.039Z,1005.53
2019-06-20T08:27:38.036Z,1005.47
2019-06-20T08:28:38.023Z,1005.50
2019-06-20T08:29:38.010Z,1005.42
2019-06-20T08:30:38.018Z,1005.50
2019-06-20T08:31:38.017Z,1005.48
2019-06-20T08:32:37.992Z,1005.54
2019-06-20T08:33:37.962Z,1005.47
2019-06-20T08:34:38.135Z,1005.46
2019-06-20T08:35:37.963Z,1005.41
2019-06-20T08:36:37.937Z,1005.50
2019-06-20T08:37:37.921Z,1005.49
2019-06-20T08:38:38.096Z,1005.49
2019-06-20T08:39:37.895Z,1005.36
2019-06-20T08:40:37.910Z,1005.30
2019-06-20T08:41:37.931Z,1005.40
2019-06-20T08:42:37.857Z,1005.36
2019-06-20T08:43:37.862Z,1005.50
2019-06-20T08:44:37.835Z,1005.43
2019-06-20T08:45:37.855Z,1005.54
2019-06-20T08:46:37.816Z,1005.55
2019-06-20T08:47:37.838Z,1005.53
2019-06-20T08:48:37.849Z,1005.47
2019-06-20T08:49:37.786Z,1005.54
2019-06-20T08:50:37.781Z,1005.40
2019-06-20T08:51:37.758Z,1005.39
2019-06-20T08:52:37.752Z,1005.38
2019-06-20T08:53:37.738Z,1005.30
2019-06-20T08:54:37.732Z,1005.37
2019-06-20T08:55:37.737Z,1005.54
2019-06-20T08:56:37.710Z,1005.51
2019-06-20T08:57:37.713Z,1005.56
2019-06-20T08:58:37.689Z,1005.65
2019-06-20T08:59:37.737Z,1005.68
2019-06-20T09:00:37.692Z,1005.57
2019-06-20T09:01:37.669Z,1005.77
2019-06-20T09:02:37.634Z,1005.57
2019-06-20T09:03:37.643Z,1005.56
2019-06-20T09:04:37.612Z,1005.57
2019-06-20T09:05:37.602Z,1005.64
2019-06-20T09:06:37.620Z,1005.69
2019-06-20T09:07:37.582Z,1005.68
2019-06-20T09:08:37.627Z,1005.68
2019-06-20T09:09:37.565Z,1005.69
2019-06-20T09:10:37.683Z,1005.82
2019-06-20T09:11:37.559Z,1005.82
2019-06-20T09:12:37.534Z,1005.87
2019-06-20T09:13:40.420Z,1005.84
2019-06-20T09:14:37.521Z,1005.86
2019-06-20T09:15:37.540Z,1005.86
2019-06-20T09:16:37.517Z,1005.83
2019-06-20T09:17:37.471Z,1005.85
2019-06-20T09:18:37.476Z,1005.87
2019-06-20T09:19:37.450Z,1005.77
2019-06-20T09:20:37.450Z,1005.74
2019-06-20T09:21:37.455Z,1005.81
2019-06-20T09:22:37.411Z,1005.78
2019-06-20T09:23:37.410Z,1005.79
2019-06-20T09:24:37.388Z,1005.71
2019-06-20T09:25:37.389Z,1005.77
2019-06-20T09:26:37.393Z,1005.68
2019-06-20T09:27:37.446Z,1005.81
2019-06-20T09:28:37.356Z,1005.64
2019-06-20T09:29:41.568Z,1005.70
2019-06-20T09:30:37.336Z,1005.69
2019-06-20T09:31:37.383Z,1005.67
2019-06-20T09:32:37.298Z,1005.70
2019-06-20T09:33:37.315Z,1005.75
2019-06-20T09:34:37.298Z,1005.83
2019-06-20T09:35:37.269Z,1005.83
2019-06-20T09:36:37.279Z,1005.68
2019-06-20T09:37:37.271Z,1005.65
2019-06-20T09:38:37.237Z,1005.69
2019-06-20T09:39:37.225Z,1005.82
2019-06-20T09:40:37.217Z,1005.76
2019-06-20T09:41:37.232Z,1005.80
2019-06-20T09:42:37.204Z,1005.79
2019-06-20T09:43:37.192Z,1005.80
2019-06-20T09:44:37.175Z,1005.85
2019-06-20T09:45:37.166Z,1005.89
2019-06-20T09:46:37.187Z,1005.81
2019-06-20T09:47:37.137Z,1005.83
2019-06-20T09:48:37.117Z,1005.81
2019-06-20T09:49:37.130Z,1005.76
2019-06-20T09:50:37.845Z,1005.79
2019-06-20T09:51:37.117Z,1005.85
2019-06-20T09:52:37.073Z,1005.80
2019-06-20T09:53:37.072Z,1005.91
2019-06-20T09:54:37.063Z,1005.97
2019-06-20T09:55:37.049Z,1005.97
2019-06-20T09:56:37.052Z,1006.09
2019-06-20T09:57:37.045Z,1006.02
2019-06-20T09:58:37.008Z,1006.18
2019-06-20T09:59:37.016Z,1006.14
2019-06-20T10:00:37.001Z,1006.14
2019-06-20T10:01:36.981Z,1006.03
2019-06-20T10:02:36.996Z,1006.19
2019-06-20T10:03:37.006Z,1006.15
2019-06-20T10:04:36.954Z,1006.13
2019-06-20T10:05:36.959Z,1006.04
2019-06-20T10:06:36.938Z,1006.05
2019-06-20T10:07:36.934Z,1006.19
2019-06-20T10:08:36.944Z,1006.04
2019-06-20T10:09:36.900Z,1006.26
2019-06-20T10:10:36.974Z,1006.09
2019-06-20T10:11:36.878Z,1006.06
2019-06-20T10:12:36.878Z,1006.17
2019-06-20T10:13:36.851Z,1006.11
2019-06-20T10:14:36.831Z,1006.09
2019-06-20T10:15:36.834Z,1006.11
2019-06-20T10:16:45.658Z,1006.10
2019-06-20T10:17:37.837Z,1006.16
2019-06-20T10:18:36.796Z,1006.28
2019-06-20T10:19:36.779Z,1006.28
2019-06-20T10:20:38.828Z,1006.14
2019-06-20T10:21:36.754Z,1006.23
2019-06-20T10:22:36.779Z,1006.19
2019-06-20T10:23:36.749Z,1006.25
2019-06-20T10:24:36.732Z,1006.30
2019-06-20T10:25:36.717Z,1006.23
2019-06-20T10:26:37.769Z,1006.35
2019-06-20T10:27:36.727Z,1006.27
2019-06-20T10:28:36.691Z,1006.42
2019-06-20T10:29:36.670Z,1006.33
2019-06-20T10:30:36.672Z,1006.31
2019-06-20T10:31:36.647Z,1006.43
2019-06-20T10:32:36.669Z,1006.30
2019-06-20T10:33:36.627Z,1006.27
2019-06-20T10:34:36.613Z,1006.25
2019-06-20T10:35:36.640Z,1006.26
2019-06-20T10:36:36.592Z,1006.27
2019-06-20T10:37:36.586Z,1006.28
2019-06-20T10:38:36.606Z,1006.45
2019-06-20T10:39:36.553Z,1006.34
2019-06-20T10:40:36.552Z,1006.33
2019-06-20T10:41:36.534Z,1006.32
2019-06-20T10:42:36.523Z,1006.44
2019-06-20T10:43:36.537Z,1006.46
2019-06-20T10:44:36.510Z,1006.44
2019-06-20T10:45:36.494Z,1006.45
2019-06-20T10:46:36.483Z,1006.40
2019-06-20T10:47:36.474Z,1006.26
2019-06-20T10:48:36.491Z,1006.36
2019-06-20T10:49:36.448Z,1006.37
2019-06-20T10:50:36.501Z,1006.42
2019-06-20T10:51:36.448Z,1006.27
2019-06-20T10:52:36.421Z,1006.25
2019-06-20T10:53:36.406Z,1006.33
2019-06-20T10:54:36.540Z,1006.35
2019-06-20T10:55:36.384Z,1006.34
2019-06-20T10:56:36.372Z,1006.30
2019-06-20T10:57:36.361Z,1006.42
2019-06-20T10:58:36.353Z,1006.34
2019-06-20T10:59:36.364Z,1006.39
2019-06-20T11:00:36.326Z,1006.36
2019-06-20T11:01:36.313Z,1006.43
2019-06-20T11:02:36.953Z,1006.42
2019-06-20T11:03:36.291Z,1006.37
2019-06-20T11:04:36.301Z,1006.33
2019-06-20T11:05:36.273Z,1006.30
2019-06-20T11:06:36.295Z,1006.48
2019-06-20T11:07:36.288Z,1006.43
2019-06-20T11:08:36.249Z,1006.44
2019-06-20T11:09:36.230Z,1006.31
2019-06-20T11:10:36.230Z,1006.33
2019-06-20T11:11:36.207Z,1006.41
2019-06-20T11:12:45.627Z,1006.35
2019-06-20T11:13:38.987Z,1006.42
2019-06-20T11:14:36.166Z,1006.26
2019-06-20T11:15:36.178Z,1006.24
2019-06-20T11:16:36.165Z,1006.20
2019-06-20T11:17:38.612Z,1006.36
2019-06-20T11:18:38.285Z,1006.17
2019-06-20T11:19:38.109Z,1006.29
2019-06-20T11:20:36.118Z,1006.27
2019-06-20T11:21:37.936Z,1006.25
2019-06-20T11:22:37.850Z,1006.35
2019-06-20T11:23:36.490Z,1006.19
2019-06-20T11:24:37.475Z,1006.27
2019-06-20T11:25:36.956Z,1006.18
2019-06-20T11:26:37.722Z,1006.15
2019-06-20T11:27:37.175Z,1006.11
2019-06-20T11:28:37.704Z,1006.16
2019-06-20T11:29:36.843Z,1006.10
2019-06-20T11:30:46.728Z,1006.12
2019-06-20T11:31:37.636Z,1006.31
2019-06-20T11:32:36.578Z,1006.14
2019-06-20T11:33:38.247Z,1006.23
2019-06-20T11:34:37.662Z,1006.14
2019-06-20T11:35:37.454Z,1006.18
2019-06-20T11:36:37.513Z,1006.20
2019-06-20T11:37:36.370Z,1006.27
2019-06-20T11:38:35.920Z,1006.20
2019-06-20T11:39:37.298Z,1006.13
2019-06-20T11:40:36.866Z,1006.10
2019-06-20T11:41:36.789Z,1006.22
2019-06-20T11:42:36.100Z,1006.23
2019-06-20T11:43:36.291Z,1006.12
2019-06-20T11:44:36.970Z,1006.14
2019-06-20T11:45:37.198Z,1006.21
2019-06-20T11:46:36.969Z,1006.09
2019-06-20T11:47:36.608Z,1006.11
2019-06-20T11:48:36.796Z,1006.18
2019-06-20T11:49:36.405Z,1006.12
2019-06-20T11:50:36.273Z,1006.21
2019-06-20T11:51:36.012Z,1006.23
2019-06-20T11:52:40.569Z,1006.15
2019-06-20T11:53:36.725Z,1006.20
2019-06-20T11:54:36.004Z,1006.16
2019-06-20T11:55:35.789Z,1006.16
2019-06-20T11:56:35.707Z,1006.33
2019-06-20T11:57:35.694Z,1006.30
2019-06-20T11:58:35.676Z,1006.24
2019-06-20T11:59:35.672Z,1006.23
2019-06-20T12:00:35.695Z,1006.17
2019-06-20T12:01:35.641Z,1006.32
2019-06-20T12:02:35.627Z,1006.30
2019-06-20T12:03:35.630Z,1006.11
2019-06-20T12:04:35.608Z,1006.29
2019-06-20T12:05:35.638Z,1006.21